Airport View

Enter AWOS ICAO identifier for current METAR.

ex. KFNL

KPMD 251253Z 23005KT 10SM CLR 14/M01 A2996 RMK AO2 SLP123 T01391011 $

25 Sep 2020 13:12

Frequency: 118.275

Phone: 661-272-3798

Other Area AWOS: KWJF - KEDW - KGXA - KMWS

TAF KPMD 251132Z 2512/2612 23006KT P6SM SKC FM251800 26010KT P6SM SKC FM252300 26015G23KT P6SM SKC FM260400 26010KT P6SM SKC